Time;durP1;ratioP1;P1;durP2;ratioP2;P2;SDS_P1;SDS_P2;PMS_P1;PMS_P2;Temp;Humidity;BMP_temperature;BMP_pressure;BME280_temperature;BME280_humidity;BME280_pressure;Samples;Min_cycle;Max_cycle;Signal;HPM_P1;HPM_P2
2021/10/04 00:00:13;;;;;;;;;1.00;1.00;;;;;14.07;77.31;101060.97;5080218;27;45476;-60
2021/10/04 00:02:38;;;;;;;;;0.25;0.25;;;;;14.04;77.65;101068.09;5080100;27;45425;-60
2021/10/04 00:05:04;;;;;;;;;5.00;1.00;;;;;14.00;77.55;101067.31;5080256;27;45421;-60
2021/10/04 00:07:30;;;;;;;;;0.25;0.25;;;;;13.98;77.71;101058.69;5080369;27;45337;-59
2021/10/04 00:09:55;;;;;;;;;2.25;2.00;;;;;13.93;77.98;101073.69;5079863;27;45474;-59
2021/10/04 00:12:21;;;;;;;;;0.00;0.00;;;;;13.85;77.69;101078.34;5079849;27;45361;-60
2021/10/04 00:14:46;;;;;;;;;1.00;1.00;;;;;13.80;77.95;101069.78;5080000;27;45362;-60
2021/10/04 00:17:11;;;;;;;;;0.00;0.00;;;;;13.74;77.85;101070.88;5072450;27;45318;-60
2021/10/04 00:19:37;;;;;;;;;0.50;0.50;;;;;13.74;78.17;101075.25;5073253;28;46413;-59
2021/10/04 00:22:03;;;;;;;;;1.00;0.25;;;;;13.74;78.15;101072.63;5080191;27;45188;-59
2021/10/04 00:24:29;;;;;;;;;1.00;1.00;;;;;13.72;78.43;101077.06;5078419;27;45732;-59
2021/10/04 00:26:54;;;;;;;;;1.00;1.00;;;;;13.64;78.52;101065.13;5080023;27;45299;-60
2021/10/04 00:29:19;;;;;;;;;1.00;1.00;;;;;13.64;78.57;101065.13;5083538;27;46234;-60
2021/10/04 00:31:47;;;;;;;;;0.00;0.00;;;;;13.65;78.68;101060.75;5081416;28;45361;-60
2021/10/04 00:34:12;;;;;;;;;0.00;0.00;;;;;13.64;78.80;101059.91;5081481;27;45453;-60
2021/10/04 00:36:38;;;;;;;;;1.00;1.00;;;;;13.65;78.61;101066.84;5081266;27;45532;-59
2021/10/04 00:39:04;;;;;;;;;0.00;0.00;;;;;13.67;78.43;101072.00;5081039;27;45400;-59
2021/10/04 00:41:29;;;;;;;;;1.50;0.50;;;;;13.67;78.51;101070.25;5080538;27;45439;-59
2021/10/04 00:43:56;;;;;;;;;3.00;1.50;;;;;13.66;78.26;101068.53;5081002;27;45467;-60
2021/10/04 00:46:23;;;;;;;;;1.00;1.00;;;;;13.65;78.47;101066.84;5081302;28;45248;-60
2021/10/04 00:48:49;;;;;;;;;1.00;1.00;;;;;13.62;78.60;101064.34;5083423;27;46485;-60
2021/10/04 00:51:15;;;;;;;;;1.00;1.00;;;;;13.62;78.58;101061.72;5083140;27;45416;-60
2021/10/04 00:53:42;;;;;;;;;0.50;0.00;;;;;13.65;78.62;101071.22;5083145;27;45481;-60
2021/10/04 00:56:08;;;;;;;;;0.75;0.75;;;;;13.65;78.36;101066.00;5082740;27;45522;-60
2021/10/04 00:58:34;;;;;;;;;0.00;0.00;;;;;13.65;78.43;101072.06;5083239;27;45321;-59
2021/10/04 01:00:59;;;;;;;;;0.50;0.00;;;;;13.64;78.16;101070.34;5083217;27;45342;-60
2021/10/04 01:03:24;;;;;;;;;0.00;0.00;;;;;13.65;78.50;101074.69;5082831;27;45462;-60
2021/10/04 01:05:50;;;;;;;;;1.00;1.00;;;;;13.64;78.18;101065.13;5083379;27;45328;-60
2021/10/04 01:08:15;;;;;;;;;1.25;0.50;;;;;13.62;78.41;101066.09;5082827;27;45343;-60
2021/10/04 01:10:41;;;;;;;;;1.75;1.00;;;;;13.61;78.21;101077.41;5082984;27;45477;-60
2021/10/04 01:13:06;;;;;;;;;0.25;0.00;;;;;13.55;78.19;101068.06;5083011;27;45350;-60
2021/10/04 01:15:31;;;;;;;;;0.75;0.75;;;;;13.54;78.51;101073.31;5083010;27;45259;-59
2021/10/04 01:17:57;;;;;;;;;1.25;0.25;;;;;13.52;78.46;101080.38;5079358;28;46331;-60
2021/10/04 01:20:27;;;;;;;;;4.25;0.75;;;;;13.47;78.51;101075.31;5083017;27;45342;-58
2021/10/04 01:22:53;;;;;;;;;1.50;0.00;;;;;13.46;78.72;101071.00;5082908;27;45468;-60
2021/10/04 01:25:21;;;;;;;;;1.50;1.50;;;;;13.48;78.85;101068.31;5082552;27;45275;-60
2021/10/04 01:27:48;;;;;;;;;0.75;0.75;;;;;13.44;78.98;101072.81;5082673;27;45350;-60
2021/10/04 01:30:16;;;;;;;;;0.00;0.00;;;;;13.44;78.74;101070.19;5082711;27;45633;-60
2021/10/04 01:32:44;;;;;;;;;1.00;1.00;;;;;13.46;78.63;101067.53;5082814;27;45585;-60
2021/10/04 01:35:10;;;;;;;;;2.00;0.00;;;;;13.42;78.41;101056.34;5082770;27;45583;-60
2021/10/04 01:37:35;;;;;;;;;2.00;0.00;;;;;13.39;78.38;101061.63;5082479;27;46250;-61
2021/10/04 01:40:01;;;;;;;;;1.00;0.00;;;;;13.39;78.59;101059.88;5081033;27;45325;-59
2021/10/04 01:42:27;;;;;;;;;2.25;0.25;;;;;13.35;78.32;101057.44;5082381;27;45283;-59
2021/10/04 01:44:52;;;;;;;;;1.00;1.00;;;;;13.31;78.50;101059.31;5081890;27;45262;-60
2021/10/04 01:47:18;;;;;;;;;3.25;1.00;;;;;13.27;78.72;101064.69;5081558;27;45916;-60
2021/10/04 01:49:44;;;;;;;;;1.00;1.00;;;;;13.25;79.05;101058.66;5082398;27;45207;-60
2021/10/04 01:52:13;;;;;;;;;1.00;1.00;;;;;13.22;78.93;101061.38;5082395;28;45243;-60
2021/10/04 01:54:40;;;;;;;;;6.25;1.00;;;;;13.19;79.16;101059.69;5081891;27;45515;-60
2021/10/04 01:57:06;;;;;;;;;1.00;1.00;;;;;13.21;79.06;101064.84;5082026;27;46995;-59
2021/10/04 01:59:31;;;;;;;;;1.00;0.00;;;;;13.18;79.13;101057.13;5082343;27;45304;-60
2021/10/04 02:01:56;;;;;;;;;2.00;1.00;;;;;13.17;79.42;101060.63;5082269;27;45307;-61
2021/10/04 02:04:22;;;;;;;;;2.00;0.00;;;;;13.18;79.20;101055.38;5081889;27;45496;-60
2021/10/04 02:06:50;;;;;;;;;0.25;0.25;;;;;13.17;79.25;101058.88;5082202;27;45359;-60
2021/10/04 02:09:16;;;;;;;;;4.00;1.00;;;;;13.17;79.43;101056.25;5081916;27;45270;-60
2021/10/04 02:11:42;;;;;;;;;0.00;0.00;;;;;13.18;79.41;101058.00;5082065;27;45472;-60
2021/10/04 02:14:07;;;;;;;;;1.50;1.00;;;;;13.16;79.82;101065.00;5082138;28;45318;-59
2021/10/04 02:16:32;;;;;;;;;0.00;0.00;;;;;13.16;79.54;101077.19;5081365;28;45353;-60
2021/10/04 02:18:58;;;;;;;;;2.75;1.25;;;;;13.17;79.83;101078.88;5070193;28;45314;-60
2021/10/04 02:21:23;;;;;;;;;2.50;1.00;;;;;13.17;79.84;101078.88;5081858;27;45405;-59
2021/10/04 02:23:49;;;;;;;;;1.00;1.00;;;;;13.19;79.68;101069.28;5082078;27;45366;-59
2021/10/04 02:26:14;;;;;;;;;1.00;1.00;;;;;13.20;79.93;101070.97;5081151;27;46093;-60
2021/10/04 02:28:39;;;;;;;;;2.75;1.00;;;;;13.19;80.00;101075.34;5082055;27;45325;-59
2021/10/04 02:31:05;;;;;;;;;1.00;1.00;;;;;13.18;79.86;101071.03;5081735;27;45500;-60
2021/10/04 02:33:30;;;;;;;;;1.75;0.00;;;;;13.21;79.91;101077.91;5081904;27;45236;-60
2021/10/04 02:35:56;;;;;;;;;0.00;0.00;;;;;13.20;79.99;101070.97;5081425;28;46253;-60
2021/10/04 02:38:21;;;;;;;;;3.00;2.00;;;;;13.20;80.20;101073.59;5081530;27;45248;-60
2021/10/04 02:40:49;;;;;;;;;0.50;0.50;;;;;13.21;80.10;101070.09;5081039;27;45310;-60
2021/10/04 02:43:18;;;;;;;;;1.75;0.75;;;;;13.20;80.34;101060.53;5080357;28;45780;-59
2021/10/04 02:45:45;;;;;;;;;1.50;1.00;;;;;13.21;80.26;101062.25;5079959;27;46991;-60
2021/10/04 02:48:10;;;;;;;;;0.75;0.50;;;;;13.20;80.14;101061.41;5081754;27;45765;-60
2021/10/04 02:50:36;;;;;;;;;1.00;0.00;;;;;13.21;80.17;101063.09;5080869;27;45314;-60
2021/10/04 02:53:01;;;;;;;;;0.50;0.50;;;;;13.21;80.17;101060.50;5080254;28;45453;-60
2021/10/04 02:55:27;;;;;;;;;2.00;0.25;;;;;13.21;80.53;101059.63;5080462;27;46038;-60
2021/10/04 02:57:52;;;;;;;;;1.25;0.75;;;;;13.21;80.42;101064.84;5081452;27;45174;-60
2021/10/04 03:00:17;;;;;;;;;0.00;0.00;;;;;13.21;80.22;101073.53;5081299;27;45224;-60
2021/10/04 03:02:44;;;;;;;;;1.00;1.00;;;;;13.21;80.41;101070.09;5081041;27;45200;-60
2021/10/04 03:05:09;;;;;;;;;2.00;1.00;;;;;13.19;80.25;101064.06;5067544;28;45387;-60
2021/10/04 03:07:35;;;;;;;;;0.50;0.50;;;;;13.19;80.29;101069.28;5081426;27;45242;-60
2021/10/04 03:10:01;;;;;;;;;0.25;0.25;;;;;13.19;80.45;101064.06;5080859;27;45636;-59
2021/10/04 03:12:26;;;;;;;;;1.00;0.00;;;;;13.18;80.49;101067.56;5081260;27;45513;-60
2021/10/04 03:14:51;;;;;;;;;1.00;0.75;;;;;13.16;80.81;101070.22;5080986;27;45374;-59
2021/10/04 03:17:17;;;;;;;;;3.25;2.00;;;;;13.15;81.05;101076.34;5074733;27;45394;-59
2021/10/04 03:19:43;;;;;;;;;2.75;1.25;;;;;13.13;80.81;101074.69;5075743;28;45292;-60
2021/10/04 03:22:08;;;;;;;;;0.00;0.00;;;;;13.07;80.81;101073.13;5081166;27;45274;-59
2021/10/04 03:24:33;;;;;;;;;1.00;1.00;;;;;13.05;81.22;101078.41;5080582;27;45318;-59
2021/10/04 03:27:00;;;;;;;;;2.75;1.00;;;;;13.03;81.13;101068.91;5080728;27;45310;-59
2021/10/04 03:29:25;;;;;;;;;1.00;1.00;;;;;13.01;81.15;101074.19;5080866;27;45362;-60
2021/10/04 03:31:50;;;;;;;;;1.00;0.25;;;;;13.01;81.23;101079.41;5080876;27;45472;-60
2021/10/04 03:34:16;;;;;;;;;2.00;1.00;;;;;13.01;81.21;101078.53;5080684;27;46309;-59
2021/10/04 03:36:42;;;;;;;;;1.50;1.50;;;;;13.00;81.54;101080.28;5080828;27;45358;-58
2021/10/04 03:39:08;;;;;;;;;1.00;1.00;;;;;12.98;81.39;101073.41;5080387;27;45267;-59
2021/10/04 03:41:34;;;;;;;;;0.00;0.00;;;;;12.97;81.43;101077.78;5080401;28;45298;-59
2021/10/04 03:44:00;;;;;;;;;1.00;1.00;;;;;12.95;81.46;101074.38;5079409;27;46129;-59
2021/10/04 03:46:25;;;;;;;;;0.25;0.25;;;;;12.93;81.52;101067.50;5080078;27;45215;-59
2021/10/04 03:48:51;;;;;;;;;3.00;1.00;;;;;12.89;81.70;101065.91;5080326;27;45783;-59
2021/10/04 03:51:16;;;;;;;;;0.00;0.00;;;;;12.89;81.68;101074.56;5080199;27;45490;-59
2021/10/04 03:53:42;;;;;;;;;2.25;1.00;;;;;12.88;81.56;101072.00;5079966;27;46302;-59
2021/10/04 03:56:07;;;;;;;;;3.00;1.00;;;;;12.87;81.52;101071.16;5079944;27;45314;-59
2021/10/04 03:58:32;;;;;;;;;9.50;7.75;;;;;12.84;82.11;101086.91;5073708;27;45410;-59
2021/10/04 04:00:58;;;;;;;;;1.00;1.00;;;;;12.79;81.76;101087.03;5080002;27;45322;-60
2021/10/04 04:03:23;;;;;;;;;2.00;1.00;;;;;12.78;81.89;101089.69;5078663;27;45354;-59
2021/10/04 04:05:49;;;;;;;;;1.25;1.00;;;;;12.77;82.06;101094.06;5080173;27;45332;-59
2021/10/04 04:08:14;;;;;;;;;2.00;0.25;;;;;12.77;81.96;101101.88;5076039;28;45306;-59
2021/10/04 04:10:39;;;;;;;;;1.00;1.00;;;;;12.77;82.00;101103.63;5079742;27;45345;-59
2021/10/04 04:13:05;;;;;;;;;1.00;1.00;;;;;12.77;82.05;101099.25;5078668;28;45972;-60
2021/10/04 04:15:30;;;;;;;;;0.75;0.00;;;;;12.79;82.15;101104.44;5080249;27;45287;-59
2021/10/04 04:17:55;;;;;;;;;0.75;0.75;;;;;12.77;82.00;101093.19;5068494;27;45453;-59
2021/10/04 04:20:21;;;;;;;;;4.00;2.75;;;;;12.78;82.00;101095.75;5080091;27;45306;-60
2021/10/04 04:22:46;;;;;;;;;2.50;1.00;;;;;12.79;82.04;101099.22;5079581;27;46130;-59
2021/10/04 04:25:12;;;;;;;;;1.50;1.50;;;;;12.79;81.86;101099.22;5079648;28;45389;-59
2021/10/04 04:27:38;;;;;;;;;1.50;0.50;;;;;12.78;82.04;101107.94;5079905;27;45302;-60
2021/10/04 04:30:06;;;;;;;;;2.00;0.00;;;;;12.76;81.90;101105.38;5079979;28;45318;-59
2021/10/04 04:32:31;;;;;;;;;4.00;1.25;;;;;12.73;81.96;101107.25;5079714;27;46477;-59
2021/10/04 04:34:57;;;;;;;;;3.00;1.00;;;;;12.73;82.33;101115.91;5079844;27;45278;-59
2021/10/04 04:37:22;;;;;;;;;2.50;1.25;;;;;12.74;82.23;101119.38;5079727;27;45235;-60
2021/10/04 04:39:47;;;;;;;;;5.75;1.00;;;;;12.73;82.29;101123.75;5079484;27;45506;-60
2021/10/04 04:42:13;;;;;;;;;2.75;1.75;;;;;12.75;82.39;101124.53;5078930;27;46129;-60
2021/10/04 04:44:38;;;;;;;;;4.00;3.00;;;;;12.75;82.24;101116.72;5078788;27;45399;-60
2021/10/04 04:47:04;;;;;;;;;7.00;5.50;;;;;12.74;82.38;101121.97;5078973;27;45267;-60
2021/10/04 04:49:30;;;;;;;;;3.50;2.00;;;;;12.75;82.66;101131.50;5079281;27;45356;-60
2021/10/04 04:51:57;;;;;;;;;2.00;0.50;;;;;12.74;82.55;101132.41;5079251;28;45439;-60
2021/10/04 04:54:24;;;;;;;;;2.00;1.00;;;;;12.73;82.50;101136.78;5078766;27;45250;-60
2021/10/04 04:56:49;;;;;;;;;5.75;2.00;;;;;12.71;82.50;101135.13;5079497;27;45314;-60
2021/10/04 04:59:15;;;;;;;;;2.00;1.50;;;;;12.69;82.61;101132.56;5078894;27;45324;-60
2021/10/04 05:01:42;;;;;;;;;3.25;2.25;;;;;12.69;82.48;101129.09;5077660;27;46127;-63
2021/10/04 05:04:08;;;;;;;;;1.00;1.00;;;;;12.67;82.77;101138.72;5076248;27;46990;-62
2021/10/04 05:06:34;;;;;;;;;2.75;1.25;;;;;12.67;82.79;101146.53;5077320;27;45387;-61
2021/10/04 05:08:59;;;;;;;;;1.00;0.00;;;;;12.66;82.91;101144.84;5077601;27;45622;-61
2021/10/04 05:11:24;;;;;;;;;4.25;2.00;;;;;12.66;82.87;101150.91;5078281;27;46085;-61
2021/10/04 05:13:50;;;;;;;;;3.00;2.00;;;;;12.65;82.98;101144.00;5079690;27;45548;-61
2021/10/04 05:16:15;;;;;;;;;3.00;2.00;;;;;12.61;83.10;101141.50;5081539;27;45243;-63
2021/10/04 05:18:41;;;;;;;;;0.50;0.50;;;;;12.60;83.15;101134.56;5069696;27;45595;-61
2021/10/04 05:21:06;;;;;;;;;1.25;1.25;;;;;12.60;83.21;101135.41;5082327;27;45978;-62
2021/10/04 05:23:32;;;;;;;;;1.00;1.00;;;;;12.58;83.16;101132.00;5082456;28;45373;-61
2021/10/04 05:25:58;;;;;;;;;3.75;1.00;;;;;12.55;83.26;101132.09;5082346;27;45231;-61
2021/10/04 05:28:23;;;;;;;;;1.50;1.50;;;;;12.51;83.38;101127.88;5082259;27;45241;-61
2021/10/04 05:30:48;;;;;;;;;2.00;2.00;;;;;12.46;83.44;101133.25;5082542;27;45262;-61
2021/10/04 05:33:14;;;;;;;;;0.00;0.00;;;;;12.42;83.66;101131.63;5082283;27;45276;-62
2021/10/04 05:35:39;;;;;;;;;3.25;3.00;;;;;12.43;83.80;101138.53;5082467;27;45219;-62
2021/10/04 05:38:04;;;;;;;;;3.00;2.75;;;;;12.40;83.94;101128.19;5082140;27;45423;-68
2021/10/04 05:40:30;;;;;;;;;0.25;0.00;;;;;12.39;83.81;101128.22;5081901;27;46013;-66
2021/10/04 05:42:56;;;;;;;;;3.00;3.00;;;;;12.39;84.14;101129.06;5081806;28;45290;-67
2021/10/04 05:45:21;;;;;;;;;4.00;2.00;;;;;12.40;84.18;101133.41;5081345;27;45687;-63
2021/10/04 05:47:46;;;;;;;;;2.50;1.00;;;;;12.39;84.24;101139.50;5080135;28;45289;-62
2021/10/04 05:50:12;;;;;;;;;1.00;1.00;;;;;12.40;84.34;101137.75;5081950;27;46168;-62
2021/10/04 05:52:38;;;;;;;;;2.00;1.00;;;;;12.40;84.08;101146.44;5081912;27;45632;-63
2021/10/04 05:55:05;;;;;;;;;2.75;1.00;;;;;12.40;84.31;101159.47;5081445;27;45293;-62
2021/10/04 05:57:31;;;;;;;;;0.50;0.00;;;;;12.38;83.77;101150.84;5081814;27;45508;-64
2021/10/04 05:59:56;;;;;;;;;3.75;3.00;;;;;12.38;84.34;101152.59;5081695;27;45286;-62
2021/10/04 06:02:22;;;;;;;;;3.25;3.25;;;;;12.37;84.13;101145.66;5081224;27;45437;-64
2021/10/04 06:04:47;;;;;;;;;2.50;2.25;;;;;12.36;83.98;101149.16;5080061;28;45365;-64
2021/10/04 06:07:13;;;;;;;;;3.00;1.75;;;;;12.33;84.04;101144.03;5080171;28;45227;-66
2021/10/04 06:09:38;;;;;;;;;1.75;0.00;;;;;12.29;84.19;101145.03;5081421;27;45165;-63
2021/10/04 06:12:04;;;;;;;;;4.75;2.25;;;;;12.22;84.44;101136.56;5081404;27;45409;-63
2021/10/04 06:14:29;;;;;;;;;2.25;1.75;;;;;12.27;84.47;101149.44;5081749;27;45290;-63
2021/10/04 06:16:55;;;;;;;;;8.25;4.25;;;;;12.27;84.65;101160.72;5077553;27;45500;-61
2021/10/04 06:19:21;;;;;;;;;3.25;2.00;;;;;12.30;84.56;101155.41;5072863;28;45989;-68
2021/10/04 06:21:47;;;;;;;;;4.00;3.50;;;;;12.31;84.76;101157.13;5081339;27;45419;-68
2021/10/04 06:24:12;;;;;;;;;10.00;4.25;;;;;12.30;84.56;101158.03;5081465;28;45306;-67
2021/10/04 06:26:38;;;;;;;;;4.75;2.00;;;;;12.31;84.82;101159.72;5080533;27;45587;-68
2021/10/04 06:29:04;;;;;;;;;2.00;2.00;;;;;12.30;84.79;101167.59;5081348;27;45556;-67
2021/10/04 06:31:29;;;;;;;;;3.25;2.00;;;;;12.25;84.79;101169.47;5081373;27;45270;-67
2021/10/04 06:33:55;;;;;;;;;0.00;0.00;;;;;12.21;84.75;101170.44;5081928;28;45345;-68
2021/10/04 06:36:21;;;;;;;;;2.50;2.50;;;;;12.21;85.03;101173.91;5081500;27;45523;-67
2021/10/04 06:38:46;;;;;;;;;2.50;2.00;;;;;12.23;84.83;101177.34;5083334;27;46690;-71
2021/10/04 06:41:12;;;;;;;;;5.50;3.75;;;;;12.28;84.84;101187.63;5101218;27;45315;-71
2021/10/04 06:43:38;;;;;;;;;7.00;4.00;;;;;12.33;85.07;101191.81;5081349;27;46321;-71
2021/10/04 06:46:08;;;;;;;;;8.00;4.00;;;;;12.37;84.89;101190.81;5078974;27;45354;-70
2021/10/04 06:48:38;;;;;;;;;5.00;5.00;;;;;12.41;84.65;101197.69;5080602;27;46144;-72
2021/10/04 06:51:05;;;;;;;;;5.75;4.00;;;;;12.41;84.40;101204.63;5080821;28;45416;-74
2021/10/04 06:53:31;;;;;;;;;3.25;2.25;;;;;12.41;84.46;101204.63;5081246;27;45204;-71
2021/10/04 06:55:56;;;;;;;;;5.00;3.00;;;;;12.36;84.22;101212.56;5080437;27;45274;-72
2021/10/04 06:58:21;;;;;;;;;3.75;3.00;;;;;12.39;84.31;101215.09;5080970;27;45161;-70
2021/10/04 07:00:47;;;;;;;;;7.50;3.25;;;;;12.44;84.56;101220.22;5080575;27;45315;-71
2021/10/04 07:03:12;;;;;;;;;5.50;3.00;;;;;12.49;84.25;101219.19;5080878;27;45709;-69
2021/10/04 07:05:38;;;;;;;;;5.00;5.00;;;;;12.54;84.07;101215.56;5080514;27;45548;-69
2021/10/04 07:08:03;;;;;;;;;4.00;3.00;;;;;12.58;83.93;101211.97;5080695;27;46055;-69
2021/10/04 07:10:29;;;;;;;;;3.50;3.50;;;;;12.61;83.84;101204.06;5080177;27;45242;-69
2021/10/04 07:12:55;;;;;;;;;2.00;2.00;;;;;12.69;83.94;101208.19;5080538;27;45506;-70
2021/10/04 07:15:20;;;;;;;;;3.00;2.50;;;;;12.75;83.39;101210.59;5079973;28;45540;-69
2021/10/04 07:17:46;;;;;;;;;3.00;2.50;;;;;12.81;83.53;101214.78;5070131;27;46523;-70
2021/10/04 07:20:11;;;;;;;;;3.50;3.00;;;;;12.87;83.33;101216.38;5079836;28;45398;-69
2021/10/04 07:22:39;;;;;;;;;4.00;3.00;;;;;12.94;83.15;101218.75;5080847;27;45452;-69
2021/10/04 07:25:05;;;;;;;;;3.00;3.00;;;;;12.96;82.35;101227.38;5080115;28;45487;-68
2021/10/04 07:27:31;;;;;;;;;3.00;2.00;;;;;12.98;82.56;101229.94;5080168;27;46251;-67
2021/10/04 07:29:57;;;;;;;;;4.00;4.00;;;;;13.04;82.55;101224.56;5080295;27;45404;-66
2021/10/04 07:32:22;;;;;;;;;2.25;2.00;;;;;13.12;82.32;101230.41;5080025;27;45434;-66
2021/10/04 07:34:48;;;;;;;;;1.50;1.50;;;;;13.17;81.66;101227.63;5080407;27;45375;-67
2021/10/04 07:37:13;;;;;;;;;1.25;1.25;;;;;13.24;82.25;101234.44;5080091;27;45320;-67
2021/10/04 07:39:38;;;;;;;;;9.75;4.75;;;;;13.30;82.11;101235.09;5080123;27;45456;-67
2021/10/04 07:42:04;;;;;;;;;2.00;2.00;;;;;13.36;81.44;101239.25;5079847;27;45747;-67
2021/10/04 07:44:29;;;;;;;;;4.50;2.00;;;;;13.45;81.79;101243.34;5079665;28;45302;-70
2021/10/04 07:46:57;;;;;;;;;2.50;2.00;;;;;13.56;81.35;101244.72;5079594;28;45345;-70
2021/10/04 07:49:24;;;;;;;;;3.00;1.50;;;;;13.64;81.08;101252.31;5080054;27;45235;-67
2021/10/04 07:51:49;;;;;;;;;19.25;16.25;;;;;13.75;80.63;101251.97;5080057;28;45500;-68
2021/10/04 07:54:14;;;;;;;;;3.50;3.25;;;;;13.82;80.36;101253.50;5079462;27;45476;-69
2021/10/04 07:56:41;;;;;;;;;5.25;3.00;;;;;13.80;79.57;101240.44;5079680;27;46114;-69
2021/10/04 07:59:08;;;;;;;;;3.75;3.75;;;;;13.88;79.78;101246.28;5079865;27;45657;-69
2021/10/04 08:01:34;;;;;;;;;2.00;2.00;;;;;13.93;79.74;101254.84;5080059;27;45353;-69
2021/10/04 08:04:00;;;;;;;;;3.00;1.00;;;;;13.95;79.89;101250.41;5079535;27;45448;-69
2021/10/04 08:06:26;;;;;;;;;6.00;2.25;;;;;14.04;79.44;101258.88;5079955;27;46288;-69
2021/10/04 08:08:54;;;;;;;;;4.00;4.00;;;;;14.14;79.69;101265.47;5079570;27;45364;-68
2021/10/04 08:11:20;;;;;;;;;4.50;4.00;;;;;14.26;79.15;101255.47;5079763;27;45204;-68
2021/10/04 08:13:46;;;;;;;;;3.75;3.25;;;;;14.37;78.58;101256.84;5079793;27;45227;-69
2021/10/04 08:16:14;;;;;;;;;2.00;2.00;;;;;14.42;78.64;101254.94;5079626;27;46958;-69
2021/10/04 08:18:39;;;;;;;;;8.00;3.00;;;;;14.49;78.10;101253.84;5067316;28;45319;-69
2021/10/04 08:21:04;;;;;;;;;5.50;4.50;;;;;14.55;78.45;101249.22;5079648;27;45458;-69
2021/10/04 08:23:30;;;;;;;;;3.50;1.00;;;;;14.64;77.99;101252.44;5079641;27;45371;-69
2021/10/04 08:25:55;;;;;;;;;4.50;3.25;;;;;14.70;78.18;101258.28;5079056;27;46217;-69
2021/10/04 08:28:21;;;;;;;;;4.50;3.75;;;;;14.79;78.20;101263.19;5078407;27;45670;-68
2021/10/04 08:30:46;;;;;;;;;4.00;2.50;;;;;14.86;78.03;101253.38;5079819;27;45498;-69
2021/10/04 08:33:12;;;;;;;;;3.00;3.00;;;;;14.93;77.16;101251.34;5079589;27;45514;-68
2021/10/04 08:35:37;;;;;;;;;5.50;2.25;;;;;15.00;77.65;101255.44;5079502;27;46296;-70
2021/10/04 08:38:03;;;;;;;;;5.00;4.00;;;;;15.08;77.10;101258.66;5079698;27;45244;-70
2021/10/04 08:40:28;;;;;;;;;4.00;2.00;;;;;15.16;77.61;101262.66;5079564;27;45224;-70
2021/10/04 08:42:54;;;;;;;;;7.00;4.00;;;;;15.23;76.00;101267.69;5072557;27;45536;-70
2021/10/04 08:45:25;;;;;;;;;3.75;2.50;;;;;15.24;75.71;101265.00;5071661;28;46320;-70
2021/10/04 08:47:52;;;;;;;;;4.00;2.50;;;;;15.21;75.80;101252.88;5078583;27;45276;-70
2021/10/04 08:50:17;;;;;;;;;5.00;4.25;;;;;15.31;75.85;101252.53;5082881;27;45220;-70
2021/10/04 08:52:43;;;;;;;;;5.25;3.00;;;;;15.43;76.02;101257.28;5082733;27;45393;-70
2021/10/04 08:55:10;;;;;;;;;4.75;3.00;;;;;15.51;75.54;101266.53;5081941;27;46149;-69
2021/10/04 08:57:35;;;;;;;;;0.00;0.00;;;;;15.58;75.39;101248.81;5083095;27;45522;-68
2021/10/04 09:00:04;;;;;;;;;6.75;4.00;;;;;15.67;74.80;101258.13;5083195;27;45301;-67
2021/10/04 09:02:31;;;;;;;;;5.00;4.00;;;;;15.66;74.36;101253.78;5082195;28;45369;-67
2021/10/04 09:05:15;;;;;;;;;5.75;5.50;;;;;15.71;75.25;101251.81;5082247;27;46237;-67
2021/10/04 09:07:48;;;;;;;;;4.75;4.00;;;;;15.84;74.42;101265.28;5082867;27;45342;-67
2021/10/04 09:10:22;;;;;;;;;3.25;1.25;;;;;15.89;73.85;101261.56;5082284;27;45290;-67
2021/10/04 09:12:52;;;;;;;;;5.50;3.25;;;;;15.90;74.16;101260.66;5082847;28;45486;-67
2021/10/04 09:15:22;;;;;;;;;4.75;3.00;;;;;15.99;74.41;101264.66;5082116;27;45246;-67
2021/10/04 09:17:49;;;;;;;;;4.00;2.50;;;;;16.07;74.46;101255.56;5071647;27;45456;-67
2021/10/04 09:20:14;;;;;;;;;6.00;3.00;;;;;16.18;73.29;101259.47;5082354;28;45361;-68
2021/10/04 09:22:40;;;;;;;;;7.75;4.00;;;;;16.23;73.49;101241.81;5082572;27;45321;-67
2021/10/04 09:25:06;;;;;;;;;6.50;5.25;;;;;16.28;73.36;101245.94;5082111;27;45415;-68
2021/10/04 09:27:40;;;;;;;;;3.25;2.75;;;;;16.41;73.22;101235.72;5082530;27;45553;-68
2021/10/04 09:30:13;;;;;;;;;3.75;3.75;;;;;16.50;73.28;101255.50;5082742;27;45359;-68
2021/10/04 09:32:44;;;;;;;;;6.25;6.00;;;;;16.60;73.05;101252.38;5082464;27;45255;-68
2021/10/04 09:35:28;;;;;;;;;4.00;3.00;;;;;16.70;72.16;101250.25;5082456;27;47219;-68
2021/10/04 09:38:14;;;;;;;;;5.00;3.75;;;;;16.81;72.65;101244.50;5081860;28;45266;-67
2021/10/04 09:40:51;;;;;;;;;4.00;2.50;;;;;16.92;71.61;101252.75;5081823;27;45222;-68
2021/10/04 09:43:29;;;;;;;;;3.25;3.25;;;;;16.95;71.78;101247.34;5072838;28;45366;-69
2021/10/04 09:46:05;;;;;;;;;6.50;4.25;;;;;16.97;71.38;101238.47;5080371;27;46476;-68
2021/10/04 09:48:32;;;;;;;;;3.75;2.50;;;;;17.00;71.08;101253.22;5080667;27;45334;-68
2021/10/04 09:51:16;;;;;;;;;4.00;2.00;;;;;17.06;70.47;101250.34;5081500;27;45268;-68
2021/10/04 09:54:10;;;;;;;;;5.00;3.00;;;;;17.20;70.77;101247.91;5081362;27;45374;-68
2021/10/04 09:56:36;;;;;;;;;3.00;3.00;;;;;17.77;70.81;101253.97;5071814;28;46103;-68
2021/10/04 09:59:02;;;;;;;;;5.00;3.25;;;;;18.81;69.35;101244.22;5081619;27;45352;-68
2021/10/04 10:01:27;;;;;;;;;6.00;4.00;;;;;19.14;66.11;101254.72;5080964;27;45426;-68
2021/10/04 10:03:55;;;;;;;;;4.50;3.25;;;;;18.99;64.29;101252.91;5081516;27;45240;-68
2021/10/04 10:06:21;;;;;;;;;2.25;2.25;;;;;18.82;66.12;101251.22;5081629;27;46389;-69
2021/10/04 10:08:46;;;;;;;;;5.25;2.25;;;;;19.34;66.07;101252.75;5080973;27;45250;-68
2021/10/04 10:11:17;;;;;;;;;0.25;0.25;;;;;20.39;64.60;101249.28;5081521;27;45263;-68
2021/10/04 10:13:43;;;;;;;;;2.50;1.75;;;;;20.89;63.35;101250.66;5080893;28;45323;-69
2021/10/04 10:16:13;;;;;;;;;2.75;1.00;;;;;20.83;60.84;101248.41;5080985;28;45403;-68
2021/10/04 10:18:43;;;;;;;;;3.00;1.00;;;;;21.32;63.88;101250.63;5068883;28;45355;-69
2021/10/04 10:21:16;;;;;;;;;4.00;2.00;;;;;21.94;59.96;101248.31;5081038;27;45303;-69
2021/10/04 10:23:42;;;;;;;;;3.50;1.75;;;;;21.63;59.30;101249.50;5080698;27;45390;-70
2021/10/04 10:26:24;;;;;;;;;3.25;2.50;;;;;21.33;59.40;101247.03;5080179;27;47195;-68
2021/10/04 10:28:50;;;;;;;;;2.50;1.00;;;;;21.82;61.31;101245.53;5080358;27;45428;-70
2021/10/04 10:31:15;;;;;;;;;2.00;2.00;;;;;22.26;58.39;101247.00;5075772;28;45764;-68
2021/10/04 10:33:49;;;;;;;;;4.25;3.75;;;;;21.67;57.24;101237.75;5071362;28;45243;-76
2021/10/04 10:36:17;;;;;;;;;0.00;0.00;;;;;21.21;56.57;101252.09;5080388;27;46315;-72
2021/10/04 10:39:06;;;;;;;;;2.50;1.50;;;;;21.53;58.21;101244.78;5080112;27;45307;-68
2021/10/04 10:41:34;;;;;;;;;3.75;2.50;;;;;21.55;58.84;101252.63;5080069;27;45217;-72
2021/10/04 10:44:12;;;;;;;;;4.25;1.00;;;;;21.57;57.72;101250.72;5079207;27;45295;-69
2021/10/04 10:46:50;;;;;;;;;5.50;3.50;;;;;21.33;57.15;101249.69;5079815;27;46138;-69
2021/10/04 10:49:53;;;;;;;;;3.75;1.75;;;;;20.75;58.08;101240.09;5080465;27;45222;-65
2021/10/04 10:52:21;;;;;;;;;2.75;2.50;;;;;20.37;59.11;101237.97;5066341;28;45635;-71
2021/10/04 10:54:47;;;;;;;;;3.00;1.50;;;;;20.16;58.81;101248.03;5080031;27;45388;-74
2021/10/04 10:57:13;;;;;;;;;2.50;1.00;;;;;20.06;59.53;101249.53;5079854;27;46242;-76
2021/10/04 10:59:39;;;;;;;;;3.75;0.75;;;;;20.15;59.55;101248.97;5080945;28;45551;-77
2021/10/04 11:02:04;;;;;;;;;4.50;1.50;;;;;20.06;57.17;101244.25;5080809;27;45305;-79
2021/10/04 11:04:43;;;;;;;;;2.50;1.00;;;;;19.90;58.90;101248.72;5080425;27;45293;-77
2021/10/04 11:07:09;;;;;;;;;1.00;1.00;;;;;19.87;59.76;101247.13;5080501;27;47081;-77
2021/10/04 11:10:07;;;;;;;;;3.75;1.50;;;;;19.94;60.08;101237.91;5080511;27;45307;-70
2021/10/04 11:13:07;;;;;;;;;3.75;1.25;;;;;20.08;59.76;101244.16;5079197;28;45418;-71
2021/10/04 11:15:37;;;;;;;;;1.75;1.00;;;;;20.01;59.07;101244.50;5080249;27;45367;-70
2021/10/04 11:18:04;;;;;;;;;4.00;1.00;;;;;19.99;59.03;101242.91;5067010;28;46002;-69
2021/10/04 11:20:29;;;;;;;;;2.25;1.00;;;;;20.04;60.23;101239.06;5080646;27;45561;-74
2021/10/04 11:23:18;;;;;;;;;9.75;3.75;;;;;20.21;60.08;101235.41;5080803;27;45247;-77